createdAt,value
2016-12-07T00:00:55.111Z,3.4
2016-12-07T00:01:55.790Z,3.41
2016-12-07T00:02:56.546Z,3.34
2016-12-07T00:03:57.208Z,3.4
2016-12-07T00:04:57.923Z,3.34
2016-12-07T00:05:58.611Z,3.32
2016-12-07T00:06:59.323Z,3.36
2016-12-07T00:07:59.976Z,3.32
2016-12-07T00:09:00.599Z,3.36
2016-12-07T00:10:01.242Z,3.32
2016-12-07T00:11:01.993Z,3.4
2016-12-07T00:12:02.606Z,3.31
2016-12-07T00:13:03.236Z,3.32
2016-12-07T00:14:03.912Z,3.29
2016-12-07T00:15:04.596Z,3.29
2016-12-07T00:16:05.246Z,3.28
2016-12-07T00:17:05.992Z,3.28
2016-12-07T00:18:06.517Z,3.36
2016-12-07T00:19:07.218Z,3.34
2016-12-07T00:20:07.859Z,3.28
2016-12-07T00:21:08.602Z,3.32
2016-12-07T00:22:09.938Z,3.37
2016-12-07T00:23:10.546Z,3.36
2016-12-07T00:24:11.243Z,3.32
2016-12-07T00:25:12.003Z,3.42
2016-12-07T00:26:12.650Z,3.34
2016-12-07T00:27:13.472Z,3.34
2016-12-07T00:28:14.051Z,3.42
2016-12-07T00:29:14.697Z,3.34
2016-12-07T00:30:15.383Z,3.37
2016-12-07T00:31:16.066Z,3.4
2016-12-07T00:32:16.768Z,3.41
2016-12-07T00:33:17.358Z,3.34
2016-12-07T00:34:18.036Z,3.32
2016-12-07T00:35:18.689Z,3.34
2016-12-07T00:36:19.379Z,3.34
2016-12-07T00:37:20.053Z,3.37
2016-12-07T00:38:20.627Z,3.31
2016-12-07T00:39:21.334Z,3.34
2016-12-07T00:40:21.917Z,3.31
2016-12-07T00:41:22.718Z,3.32
2016-12-07T00:42:23.299Z,3.31
2016-12-07T00:43:23.953Z,3.26
2016-12-07T00:44:24.596Z,3.31
2016-12-07T00:45:25.268Z,3.32
2016-12-07T00:46:25.899Z,3.29
2016-12-07T00:47:26.539Z,3.29
2016-12-07T00:48:27.179Z,3.25
2016-12-07T00:49:27.865Z,3.28
2016-12-07T00:50:28.515Z,3.25
2016-12-07T00:51:29.177Z,3.28
2016-12-07T00:52:29.897Z,3.34
2016-12-07T00:53:30.468Z,3.25
2016-12-07T00:54:31.099Z,3.31
2016-12-07T00:55:31.746Z,3.31
2016-12-07T00:56:32.389Z,3.31
2016-12-07T00:57:33.075Z,3.28
2016-12-07T00:58:33.694Z,3.23
2016-12-07T00:59:34.342Z,3.29
2016-12-07T01:00:34.990Z,3.34
2016-12-07T01:01:35.679Z,3.26
2016-12-07T01:02:36.391Z,3.23
2016-12-07T01:03:37.100Z,3.32
2016-12-07T01:04:37.745Z,3.16
2016-12-07T01:05:38.488Z,3.32
2016-12-07T01:06:39.108Z,3.32
2016-12-07T01:07:39.758Z,3.26
2016-12-07T01:08:40.416Z,3.19
2016-12-07T01:09:41.068Z,3.19
2016-12-07T01:10:41.712Z,3.18
2016-12-07T01:11:42.364Z,3.11
2016-12-07T01:12:43.080Z,3.16
2016-12-07T01:13:43.729Z,3.18
2016-12-07T01:14:44.413Z,3.18
2016-12-07T01:15:45.017Z,3.16
2016-12-07T01:16:45.724Z,3.03
2016-12-07T01:17:46.385Z,3.18
2016-12-07T01:18:47.039Z,3.13
2016-12-07T01:19:47.725Z,3.18
2016-12-07T01:20:48.373Z,3.14
2016-12-07T01:21:49.014Z,3.19
2016-12-07T01:22:49.694Z,3.22
2016-12-07T01:23:50.503Z,3.11
2016-12-07T01:24:51.138Z,3.14
2016-12-07T01:25:51.779Z,3.19
2016-12-07T01:26:52.473Z,3.14
2016-12-07T01:27:53.060Z,3.19
2016-12-07T01:28:53.754Z,3.13
2016-12-07T01:29:54.392Z,3.11
2016-12-07T01:30:55.047Z,3.11
2016-12-07T01:31:55.707Z,3.07
2016-12-07T01:32:56.406Z,3.13
2016-12-07T01:33:57.124Z,3.18
2016-12-07T01:34:57.710Z,3.11
2016-12-07T01:35:58.359Z,3.14
2016-12-07T01:36:59.079Z,3.13
2016-12-07T01:37:59.689Z,3.05
2016-12-07T01:39:00.379Z,3.11
2016-12-07T01:40:01.145Z,3.13
2016-12-07T01:41:01.861Z,3.11
2016-12-07T01:42:02.532Z,3.03
2016-12-07T01:43:03.414Z,3.14
2016-12-07T01:44:04.071Z,3.08
2016-12-07T01:45:04.707Z,3.16
2016-12-07T01:46:05.358Z,3.08
2016-12-07T01:47:05.999Z,3.11
2016-12-07T01:48:06.660Z,3.16
2016-12-07T01:49:07.328Z,3.14
2016-12-07T01:50:08.177Z,3.11
2016-12-07T01:51:08.946Z,3.11
2016-12-07T01:52:09.614Z,3.07
2016-12-07T01:53:10.404Z,3.07
2016-12-07T01:54:11.119Z,3.11
2016-12-07T01:55:11.732Z,3.04
2016-12-07T01:56:12.366Z,3.01
2016-12-07T01:57:13.217Z,3.04
2016-12-07T01:58:13.847Z,2.95
2016-12-07T01:59:14.543Z,2.95
2016-12-07T02:00:15.257Z,2.97
2016-12-07T02:01:15.969Z,3
2016-12-07T02:02:16.646Z,2.92
2016-12-07T02:03:17.256Z,3.04
2016-12-07T02:04:17.966Z,3.03
2016-12-07T02:05:18.725Z,2.93
2016-12-07T02:06:19.370Z,2.92
2016-12-07T02:07:20.041Z,2.97
2016-12-07T02:08:20.713Z,2.92
2016-12-07T02:09:21.357Z,2.87
2016-12-07T02:10:21.990Z,2.9
2016-12-07T02:11:22.650Z,2.83
2016-12-07T02:12:23.301Z,2.9
2016-12-07T02:13:23.976Z,2.86
2016-12-07T02:14:24.652Z,2.83
2016-12-07T02:15:25.334Z,2.85
2016-12-07T02:16:25.993Z,2.87
2016-12-07T02:17:26.658Z,2.95
2016-12-07T02:18:27.306Z,2.83
2016-12-07T02:19:28.024Z,2.86
2016-12-07T02:20:28.678Z,2.85
2016-12-07T02:21:29.411Z,2.87
2016-12-07T02:22:30.343Z,2.87
2016-12-07T02:23:30.979Z,2.77
2016-12-07T02:24:31.622Z,2.89
2016-12-07T02:25:32.256Z,2.83
2016-12-07T02:26:32.920Z,2.77
2016-12-07T02:27:33.580Z,2.86
2016-12-07T02:28:34.247Z,2.82
2016-12-07T02:29:34.880Z,2.77
2016-12-07T02:30:35.521Z,2.77
2016-12-07T02:31:36.151Z,2.82
2016-12-07T02:32:36.791Z,2.8
2016-12-07T02:33:37.568Z,2.8
2016-12-07T02:34:38.176Z,2.74
2016-12-07T02:35:38.910Z,2.74
2016-12-07T02:36:39.581Z,2.8
2016-12-07T02:37:40.250Z,2.74
2016-12-07T02:38:40.886Z,2.72
2016-12-07T02:39:41.544Z,2.69
2016-12-07T02:40:42.247Z,2.72
2016-12-07T02:41:42.910Z,2.72
2016-12-07T02:42:43.580Z,2.62
2016-12-07T02:43:44.227Z,2.69
2016-12-07T02:44:44.914Z,2.75
2016-12-07T02:45:45.563Z,2.62
2016-12-07T02:46:46.229Z,2.79
2016-12-07T02:47:46.921Z,2.62
2016-12-07T02:48:47.544Z,2.69
2016-12-07T02:49:48.230Z,2.74
2016-12-07T02:50:48.873Z,2.62
2016-12-07T02:51:49.491Z,2.68
2016-12-07T02:52:50.166Z,2.69
2016-12-07T02:53:50.840Z,2.6
2016-12-07T02:54:51.821Z,2.65
2016-12-07T02:55:52.530Z,2.68
2016-12-07T02:56:53.128Z,2.68
2016-12-07T02:57:53.860Z,2.57
2016-12-07T02:58:54.536Z,2.6
2016-12-07T02:59:55.275Z,2.62
2016-12-07T03:00:55.978Z,2.65
2016-12-07T03:01:56.629Z,2.53
2016-12-07T03:02:57.298Z,2.54
2016-12-07T03:03:57.962Z,2.47
2016-12-07T03:04:58.657Z,2.57
2016-12-07T03:05:59.290Z,2.43
2016-12-07T03:06:59.979Z,2.57
2016-12-07T03:08:00.629Z,2.61
2016-12-07T03:09:01.276Z,2.57
2016-12-07T03:10:02.042Z,2.5
2016-12-07T03:11:02.636Z,2.57
2016-12-07T03:12:03.250Z,2.56
2016-12-07T03:13:03.880Z,2.43
2016-12-07T03:14:04.500Z,2.5
2016-12-07T03:15:05.154Z,2.44
2016-12-07T03:16:05.905Z,2.39
2016-12-07T03:17:06.678Z,2.36
2016-12-07T03:18:07.335Z,2.46
2016-12-07T03:19:07.961Z,2.56
2016-12-07T03:20:08.619Z,2.53
2016-12-07T03:21:09.252Z,2.46
2016-12-07T03:22:09.995Z,2.42
2016-12-07T03:23:10.645Z,2.42
2016-12-07T03:24:11.377Z,2.42
2016-12-07T03:25:12.041Z,2.44
2016-12-07T03:26:12.715Z,2.44
2016-12-07T03:27:13.401Z,2.44
2016-12-07T03:28:14.096Z,2.46
2016-12-07T03:29:14.772Z,2.47
2016-12-07T03:30:15.425Z,2.39
2016-12-07T03:31:16.050Z,2.39
2016-12-07T03:32:16.700Z,2.35
2016-12-07T03:33:17.339Z,2.33
2016-12-07T03:34:18.025Z,2.32
2016-12-07T03:35:18.784Z,2.38
2016-12-07T03:36:19.367Z,2.35
2016-12-07T03:37:19.959Z,2.26
2016-12-07T03:38:20.624Z,2.26
2016-12-07T03:39:21.272Z,2.33
2016-12-07T03:40:21.935Z,2.32
2016-12-07T03:41:22.599Z,2.31
2016-12-07T03:42:23.255Z,2.22
2016-12-07T03:43:23.923Z,2.24
2016-12-07T03:44:24.574Z,2.2
2016-12-07T03:45:25.212Z,2.22
2016-12-07T03:46:25.905Z,2.22
2016-12-07T03:47:26.536Z,2.17
2016-12-07T03:48:27.170Z,2.15
2016-12-07T03:49:27.818Z,2.15
2016-12-07T03:50:28.483Z,2.13
2016-12-07T03:51:29.089Z,2.13
2016-12-07T03:52:29.737Z,2.07
2016-12-07T03:53:30.416Z,2.17
2016-12-07T03:54:31.063Z,2.15
2016-12-07T03:55:31.733Z,2.08
2016-12-07T03:56:32.374Z,2.15
2016-12-07T03:57:33.029Z,2.13
2016-12-07T03:58:33.699Z,2.08
2016-12-07T03:59:34.422Z,2.08
2016-12-07T04:00:35.037Z,2.11
2016-12-07T04:01:35.728Z,2.13
2016-12-07T04:02:36.445Z,2.13
2016-12-07T04:03:37.068Z,2.1
2016-12-07T04:04:37.754Z,2.11
2016-12-07T04:05:38.401Z,2.08
2016-12-07T04:06:39.069Z,2.11
2016-12-07T04:07:39.762Z,2.08
2016-12-07T04:08:40.357Z,2.15
2016-12-07T04:09:41.055Z,2.13
2016-12-07T04:10:41.672Z,2.08
2016-12-07T04:11:42.328Z,2.11
2016-12-07T04:12:42.965Z,2.1
2016-12-07T04:13:43.622Z,2.06
2016-12-07T04:14:44.297Z,2.04
2016-12-07T04:15:44.955Z,2.1
2016-12-07T04:16:45.659Z,2
2016-12-07T04:17:46.306Z,2.04
2016-12-07T04:18:46.939Z,2.17
2016-12-07T04:19:47.583Z,2.08
2016-12-07T04:20:48.274Z,2.04
2016-12-07T04:21:48.898Z,1.99
2016-12-07T04:22:49.529Z,2.11
2016-12-07T04:23:50.237Z,1.92
2016-12-07T04:24:50.853Z,1.95
2016-12-07T04:25:51.473Z,2
2016-12-07T04:26:52.109Z,1.89
2016-12-07T04:27:52.766Z,1.92
2016-12-07T04:28:53.406Z,1.95
2016-12-07T04:29:54.098Z,1.92
2016-12-07T04:30:54.739Z,2.08
2016-12-07T04:31:55.374Z,2.08
2016-12-07T04:32:56.028Z,2
2016-12-07T04:33:56.672Z,2
2016-12-07T04:34:57.308Z,1.89
2016-12-07T04:35:57.943Z,2.08
2016-12-07T04:36:58.593Z,1.92
2016-12-07T04:37:59.244Z,2.04
2016-12-07T04:38:59.919Z,1.91
2016-12-07T04:40:00.582Z,1.94
2016-12-07T04:41:01.210Z,1.89
2016-12-07T04:42:01.827Z,1.91
2016-12-07T04:43:02.466Z,1.92
2016-12-07T04:44:03.103Z,1.91
2016-12-07T04:45:03.754Z,1.88
2016-12-07T04:46:04.417Z,1.95
2016-12-07T04:47:05.096Z,1.95
2016-12-07T04:48:05.772Z,1.97
2016-12-07T04:49:06.408Z,2
2016-12-07T04:50:07.037Z,2.04
2016-12-07T04:51:07.668Z,2.02
2016-12-07T04:52:08.331Z,1.92
2016-12-07T04:53:08.977Z,1.97
2016-12-07T04:54:09.640Z,1.99
2016-12-07T04:55:10.295Z,1.91
2016-12-07T04:56:10.977Z,1.91
2016-12-07T04:57:11.660Z,1.95
2016-12-07T04:58:12.280Z,1.91
2016-12-07T04:59:12.909Z,2.07
2016-12-07T05:00:13.541Z,2.11
2016-12-07T05:01:14.205Z,2.02
2016-12-07T05:02:14.866Z,2.07
2016-12-07T05:03:15.506Z,2.13
2016-12-07T05:04:16.151Z,2.08
2016-12-07T05:05:16.797Z,2.07
2016-12-07T05:06:17.427Z,2.06
2016-12-07T05:07:18.072Z,2.07
2016-12-07T05:08:18.694Z,2
2016-12-07T05:09:19.315Z,2.07
2016-12-07T05:10:19.947Z,2.02
2016-12-07T05:11:20.558Z,2.07
2016-12-07T05:12:21.236Z,2.07
2016-12-07T05:13:21.880Z,1.99
2016-12-07T05:14:22.498Z,2.14
2016-12-07T05:15:23.141Z,2.15
2016-12-07T05:16:23.813Z,2.1
2016-12-07T05:17:24.406Z,2.14
2016-12-07T05:18:25.067Z,2.2
2016-12-07T05:19:25.696Z,2.26
2016-12-07T05:20:26.362Z,2.24
2016-12-07T05:21:26.979Z,2.22
2016-12-07T05:22:27.602Z,2.25
2016-12-07T05:23:28.242Z,2.26
2016-12-07T05:24:28.870Z,2.31
2016-12-07T05:25:29.508Z,2.28
2016-12-07T05:26:30.168Z,2.28
2016-12-07T05:27:30.848Z,2.26
2016-12-07T05:28:31.473Z,2.39
2016-12-07T05:29:32.101Z,2.28
2016-12-07T05:30:32.751Z,2.31
2016-12-07T05:31:33.384Z,2.35
2016-12-07T05:32:34.006Z,2.28
2016-12-07T05:33:34.667Z,2.32
2016-12-07T05:34:35.323Z,2.39
2016-12-07T05:35:35.954Z,2.42
2016-12-07T05:36:36.586Z,2.43
2016-12-07T05:37:37.221Z,2.44
2016-12-07T05:38:37.867Z,2.43
2016-12-07T05:39:38.495Z,2.42
2016-12-07T05:40:39.166Z,2.43
2016-12-07T05:41:39.790Z,2.43
2016-12-07T05:42:40.416Z,2.35
2016-12-07T05:43:41.085Z,2.24
2016-12-07T05:44:41.679Z,2.29
2016-12-07T05:45:42.311Z,2.39
2016-12-07T05:46:42.949Z,2.32
2016-12-07T05:47:43.631Z,2.26
2016-12-07T05:48:44.270Z,2.22
2016-12-07T05:49:44.913Z,2.26
2016-12-07T05:50:45.538Z,2.26
2016-12-07T05:51:46.195Z,2.33
2016-12-07T05:52:46.822Z,2.26
2016-12-07T05:53:47.455Z,2.29
2016-12-07T05:54:48.095Z,2.25
2016-12-07T05:55:48.740Z,2.24
2016-12-07T05:56:49.372Z,2.28
2016-12-07T05:57:50.008Z,2.28
2016-12-07T05:58:50.677Z,2.26
2016-12-07T05:59:51.330Z,2.28
2016-12-07T06:00:51.988Z,2.31
2016-12-07T06:01:52.641Z,2.33
2016-12-07T06:02:53.292Z,2.39
2016-12-07T06:03:53.926Z,2.39
2016-12-07T06:04:54.690Z,2.35
2016-12-07T06:05:55.235Z,2.33
2016-12-07T06:06:55.857Z,2.36
2016-12-07T06:07:56.494Z,2.33
2016-12-07T06:08:57.188Z,2.26
2016-12-07T06:09:57.821Z,2.31
2016-12-07T06:10:58.471Z,2.26
2016-12-07T06:11:59.105Z,2.26
2016-12-07T06:12:59.755Z,2.29
2016-12-07T06:14:00.398Z,2.29
2016-12-07T06:15:01.063Z,2.33
2016-12-07T06:16:01.727Z,2.22
2016-12-07T06:17:02.377Z,2.26
2016-12-07T06:18:03.009Z,2.28
2016-12-07T06:19:03.697Z,2.28
2016-12-07T06:20:04.341Z,2.29
2016-12-07T06:21:05.015Z,2.26
2016-12-07T06:22:05.709Z,2.33
2016-12-07T06:23:06.307Z,2.28
2016-12-07T06:24:06.996Z,2.31
2016-12-07T06:25:07.633Z,2.29
2016-12-07T06:26:08.272Z,2.25
2016-12-07T06:27:08.918Z,2.25
2016-12-07T06:28:09.574Z,2.29
2016-12-07T06:29:10.268Z,2.28
2016-12-07T06:30:10.867Z,2.2
2016-12-07T06:31:11.567Z,2.22
2016-12-07T06:32:12.185Z,2.22
2016-12-07T06:33:12.840Z,2.2
2016-12-07T06:34:13.508Z,2.17
2016-12-07T06:35:14.146Z,2.24
2016-12-07T06:36:14.800Z,2.25
2016-12-07T06:37:15.439Z,2.17
2016-12-07T06:38:16.070Z,2.31
2016-12-07T06:39:16.826Z,2.29
2016-12-07T06:40:17.452Z,2.28
2016-12-07T06:41:18.206Z,2.29
2016-12-07T06:42:18.891Z,2.29
2016-12-07T06:43:19.529Z,2.31
2016-12-07T06:44:20.220Z,2.33
2016-12-07T06:45:20.882Z,2.36
2016-12-07T06:46:21.497Z,2.28
2016-12-07T06:47:22.173Z,2.33
2016-12-07T06:48:23.051Z,2.35
2016-12-07T06:49:23.621Z,2.32
2016-12-07T06:50:24.282Z,2.35
2016-12-07T06:51:25.012Z,2.33
2016-12-07T06:52:25.627Z,2.28
2016-12-07T06:53:26.359Z,2.26
2016-12-07T06:54:27.011Z,2.2
2016-12-07T06:55:27.703Z,2.1
2016-12-07T06:56:28.423Z,2.13
2016-12-07T06:57:29.143Z,2.14
2016-12-07T06:58:29.798Z,2.18
2016-12-07T06:59:30.585Z,2.25
2016-12-07T07:00:31.213Z,2.26
2016-12-07T07:01:31.917Z,2.29
2016-12-07T07:02:32.550Z,2.38
2016-12-07T07:03:33.212Z,2.26
2016-12-07T07:04:33.891Z,2.35
2016-12-07T07:05:34.603Z,2.24
2016-12-07T07:06:35.249Z,2.35
2016-12-07T07:07:35.953Z,2.39
2016-12-07T07:08:36.713Z,2.28
2016-12-07T07:09:37.421Z,2.33
2016-12-07T07:10:38.015Z,2.26
2016-12-07T07:11:38.920Z,2.32
2016-12-07T07:12:39.575Z,2.29
2016-12-07T07:13:40.183Z,2.26
2016-12-07T07:14:40.861Z,2.26
2016-12-07T07:15:41.490Z,2.22
2016-12-07T07:16:42.149Z,2.26
2016-12-07T07:17:42.780Z,2.22
2016-12-07T07:18:43.545Z,2.24
2016-12-07T07:19:44.258Z,2.24
2016-12-07T07:20:44.942Z,2.26
2016-12-07T07:21:45.590Z,2.29
2016-12-07T07:22:46.281Z,2.31
2016-12-07T07:23:47.523Z,2.28
2016-12-07T07:24:48.968Z,2.29
2016-12-07T07:25:49.596Z,2.25
2016-12-07T07:26:51.084Z,2.28
2016-12-07T07:27:51.563Z,2.32
2016-12-07T07:28:52.232Z,2.28
2016-12-07T07:29:52.885Z,2.28
2016-12-07T07:30:53.507Z,2.31
2016-12-07T07:31:54.140Z,2.32
2016-12-07T07:32:55.784Z,2.35
2016-12-07T07:33:56.421Z,2.29
2016-12-07T07:34:57.058Z,2.33
2016-12-07T07:35:57.747Z,2.42
2016-12-07T07:36:58.427Z,2.74
2016-12-07T07:37:59.078Z,2.8
2016-12-07T07:38:59.740Z,2.92
2016-12-07T07:40:00.377Z,2.75
2016-12-07T07:41:01.022Z,2.69
2016-12-07T07:42:01.676Z,2.68
2016-12-07T07:43:02.353Z,2.61
2016-12-07T07:44:03.035Z,2.61
2016-12-07T07:45:03.684Z,2.61
2016-12-07T07:46:04.330Z,2.61
2016-12-07T07:47:04.982Z,2.62
2016-12-07T07:48:05.611Z,2.71
2016-12-07T07:49:06.248Z,2.64
2016-12-07T07:50:06.908Z,2.6
2016-12-07T07:51:08.402Z,2.53
2016-12-07T07:52:09.090Z,2.54
2016-12-07T07:53:09.743Z,2.49
2016-12-07T07:54:10.386Z,2.47
2016-12-07T07:55:11.028Z,2.39
2016-12-07T07:56:11.719Z,2.42
2016-12-07T07:57:12.351Z,2.42
2016-12-07T07:58:12.983Z,2.39
2016-12-07T07:59:13.602Z,2.49
2016-12-07T08:00:14.249Z,2.39
2016-12-07T08:01:14.889Z,2.49
2016-12-07T08:02:15.532Z,2.36
2016-12-07T08:03:16.183Z,2.39
2016-12-07T08:04:16.804Z,2.44
2016-12-07T08:05:17.412Z,2.42
2016-12-07T08:06:18.027Z,2.42
2016-12-07T08:07:18.641Z,2.46
2016-12-07T08:08:19.267Z,2.43
2016-12-07T08:09:19.871Z,2.5
2016-12-07T08:10:20.504Z,2.49
2016-12-07T08:11:21.107Z,2.57
2016-12-07T08:12:21.751Z,2.56
2016-12-07T08:13:22.372Z,2.53
2016-12-07T08:14:23.009Z,2.51
2016-12-07T08:15:23.650Z,2.51
2016-12-07T08:16:24.275Z,2.47
2016-12-07T08:17:24.920Z,2.53
2016-12-07T08:18:25.581Z,2.65
2016-12-07T08:19:26.232Z,2.61
2016-12-07T08:20:26.872Z,2.61
2016-12-07T08:21:27.598Z,2.69
2016-12-07T08:22:28.224Z,2.74
2016-12-07T08:23:28.889Z,2.71
2016-12-07T08:24:29.573Z,2.65
2016-12-07T08:25:30.250Z,2.68
2016-12-07T08:26:30.891Z,2.8
2016-12-07T08:27:31.618Z,2.64
2016-12-07T08:28:32.211Z,2.65
2016-12-07T08:29:32.863Z,2.68
2016-12-07T08:30:33.505Z,2.62
2016-12-07T08:31:34.264Z,2.69
2016-12-07T08:32:35.467Z,2.67
2016-12-07T08:33:36.136Z,2.72
2016-12-07T08:34:36.815Z,2.77
2016-12-07T08:35:37.476Z,2.85
2016-12-07T08:36:38.247Z,2.77
2016-12-07T08:37:38.944Z,2.69
2016-12-07T08:38:39.573Z,2.68
2016-12-07T08:39:40.208Z,2.75
2016-12-07T08:40:40.892Z,2.75
2016-12-07T08:41:41.603Z,2.72
2016-12-07T08:42:42.317Z,2.74
2016-12-07T08:43:42.954Z,2.75
2016-12-07T08:44:43.624Z,2.8
2016-12-07T08:45:44.303Z,2.79
2016-12-07T08:46:44.948Z,2.8
2016-12-07T08:47:45.614Z,2.79
2016-12-07T08:48:46.299Z,2.82
2016-12-07T08:49:46.960Z,2.8
2016-12-07T08:50:47.656Z,2.9
2016-12-07T08:51:48.302Z,2.85
2016-12-07T08:52:48.940Z,2.86
2016-12-07T08:53:49.570Z,2.87
2016-12-07T08:54:50.309Z,2.83
2016-12-07T08:55:50.960Z,2.87
2016-12-07T08:56:51.586Z,2.85
2016-12-07T08:57:52.273Z,2.93
2016-12-07T08:58:52.914Z,2.97
2016-12-07T08:59:53.583Z,2.86
2016-12-07T09:00:54.327Z,2.9
2016-12-07T09:01:54.985Z,2.95
2016-12-07T09:02:55.659Z,3
2016-12-07T09:03:56.304Z,3.01
2016-12-07T09:04:56.939Z,3.11
2016-12-07T09:05:58.136Z,3.08
2016-12-07T09:06:58.847Z,3.07
2016-12-07T09:07:59.526Z,3.1
2016-12-07T09:09:00.224Z,3.1
2016-12-07T09:10:00.866Z,3.07
2016-12-07T09:11:02.397Z,3.14
2016-12-07T09:12:03.167Z,3.11
2016-12-07T09:13:03.868Z,3.03
2016-12-07T09:14:04.494Z,3.13
2016-12-07T09:15:05.136Z,3.11
2016-12-07T09:16:05.824Z,3.18
2016-12-07T09:17:06.440Z,3.25
2016-12-07T09:18:07.192Z,3.28
2016-12-07T09:19:08.900Z,3.26
2016-12-07T09:20:09.542Z,3.16
2016-12-07T09:21:10.289Z,3.1
2016-12-07T09:22:10.951Z,3.07
2016-12-07T09:23:11.737Z,3.08
2016-12-07T09:24:12.343Z,3.19
2016-12-07T09:25:12.979Z,3.18
2016-12-07T09:26:13.618Z,3.32
2016-12-07T09:27:14.437Z,3.32
2016-12-07T09:28:15.115Z,3.25
2016-12-07T09:29:15.753Z,3.28
2016-12-07T09:30:16.388Z,3.31
2016-12-07T09:31:17.040Z,3.31
2016-12-07T09:32:17.666Z,3.34
2016-12-07T09:33:18.309Z,3.34
2016-12-07T09:34:18.948Z,3.4
2016-12-07T09:35:19.565Z,3.4
2016-12-07T09:36:20.186Z,3.48
2016-12-07T09:37:20.813Z,3.41
2016-12-07T09:38:21.468Z,3.53
2016-12-07T09:39:22.099Z,3.5
2016-12-07T09:40:22.720Z,3.53
2016-12-07T09:41:23.355Z,3.56
2016-12-07T09:42:24.014Z,3.51
2016-12-07T09:43:24.630Z,3.7
2016-12-07T09:44:25.249Z,3.65
2016-12-07T09:45:25.900Z,3.68
2016-12-07T09:46:26.560Z,3.69
2016-12-07T09:47:27.189Z,3.74
2016-12-07T09:48:27.802Z,3.74
2016-12-07T09:49:28.504Z,3.77
2016-12-07T09:50:29.250Z,3.69
2016-12-07T09:51:29.942Z,3.73
2016-12-07T09:52:30.595Z,3.7
2016-12-07T09:53:31.226Z,3.8
2016-12-07T09:54:31.873Z,3.66
2016-12-07T09:55:32.539Z,3.77
2016-12-07T09:56:33.213Z,3.77
2016-12-07T09:57:33.909Z,3.74
2016-12-07T09:58:34.545Z,3.78
2016-12-07T09:59:35.215Z,3.83
2016-12-07T10:00:35.869Z,3.81
2016-12-07T10:01:36.531Z,3.76
2016-12-07T10:02:37.151Z,3.78
2016-12-07T10:03:37.777Z,3.86
2016-12-07T10:04:38.395Z,3.86
2016-12-07T10:05:39.020Z,3.91
2016-12-07T10:06:39.636Z,3.88
2016-12-07T10:07:40.264Z,3.8
2016-12-07T10:08:40.934Z,3.8
2016-12-07T10:09:41.583Z,3.66
2016-12-07T10:10:42.240Z,3.73
2016-12-07T10:11:42.913Z,3.77
2016-12-07T10:12:43.575Z,3.86
2016-12-07T10:13:44.246Z,3.86
2016-12-07T10:14:44.873Z,3.87
2016-12-07T10:15:45.544Z,3.91
2016-12-07T10:16:46.188Z,3.91
2016-12-07T10:17:46.930Z,3.81
2016-12-07T10:18:47.582Z,3.91
2016-12-07T10:19:48.219Z,3.94
2016-12-07T10:20:48.845Z,3.96
2016-12-07T10:21:49.476Z,4.01
2016-12-07T10:22:50.105Z,4.02
2016-12-07T10:23:50.751Z,3.96
2016-12-07T10:24:51.366Z,3.94
2016-12-07T10:25:52.014Z,4.02
2016-12-07T10:26:52.695Z,3.96
2016-12-07T10:27:53.481Z,3.98
2016-12-07T10:28:54.212Z,4.1
2016-12-07T10:29:54.857Z,3.99
2016-12-07T10:30:55.542Z,4.17
2016-12-07T10:31:56.209Z,4.06
2016-12-07T10:32:56.916Z,4.14
2016-12-07T10:33:57.555Z,4.08
2016-12-07T10:34:58.222Z,4.12
2016-12-07T10:35:58.927Z,3.98
2016-12-07T10:36:59.615Z,4.12
2016-12-07T10:38:00.328Z,4.2
2016-12-07T10:39:01.087Z,4.2
2016-12-07T10:40:01.815Z,4.17
2016-12-07T10:41:02.476Z,4.24
2016-12-07T10:42:03.147Z,4.34
2016-12-07T10:43:03.793Z,4.2
2016-12-07T10:44:04.466Z,4.2
2016-12-07T10:45:05.211Z,4.2
2016-12-07T10:46:05.869Z,4.28
2016-12-07T10:47:06.633Z,4.2
2016-12-07T10:48:07.262Z,4.28
2016-12-07T10:49:07.910Z,4.26
2016-12-07T10:50:08.572Z,4.3
2016-12-07T10:51:09.223Z,4.26
2016-12-07T10:52:09.846Z,4.2
2016-12-07T10:53:10.465Z,4.2
2016-12-07T10:54:11.112Z,4.2
2016-12-07T10:55:11.745Z,4.24
2016-12-07T10:56:12.404Z,4.34
2016-12-07T10:57:13.047Z,4.23
2016-12-07T10:58:13.701Z,4.34
2016-12-07T10:59:14.382Z,4.32
2016-12-07T11:00:15.006Z,4.35
2016-12-07T11:01:15.664Z,4.37
2016-12-07T11:02:16.386Z,4.44
2016-12-07T11:03:16.998Z,4.37
2016-12-07T11:04:17.613Z,4.45
2016-12-07T11:05:18.390Z,4.52
2016-12-07T11:06:19.078Z,4.55
2016-12-07T11:07:19.734Z,4.58
2016-12-07T11:08:20.418Z,4.56
2016-12-07T11:09:21.078Z,4.55
2016-12-07T11:10:21.732Z,4.56
2016-12-07T11:11:22.365Z,4.55
2016-12-07T11:12:23.036Z,4.56
2016-12-07T11:13:23.667Z,4.6
2016-12-07T11:14:24.345Z,4.7
2016-12-07T11:15:25.000Z,4.75
2016-12-07T11:16:25.629Z,4.86
2016-12-07T11:17:26.245Z,4.8
2016-12-07T11:18:26.866Z,4.87
2016-12-07T11:19:27.513Z,4.92
2016-12-07T11:20:28.140Z,4.87
2016-12-07T11:21:28.852Z,4.94
2016-12-07T11:22:29.503Z,4.9
2016-12-07T11:23:30.174Z,5.02
2016-12-07T11:24:30.831Z,5.08
2016-12-07T11:25:31.456Z,5.11
2016-12-07T11:26:32.095Z,5.02
2016-12-07T11:27:32.721Z,5.07
2016-12-07T11:28:33.346Z,5.12
2016-12-07T11:29:33.976Z,5.08
2016-12-07T11:30:34.609Z,5.08
2016-12-07T11:31:35.228Z,5.08
2016-12-07T11:32:35.866Z,5.15
2016-12-07T11:33:36.483Z,5.17
2016-12-07T11:34:37.128Z,5.21
2016-12-07T11:35:37.770Z,5.26
2016-12-07T11:36:38.400Z,5.21
2016-12-07T11:37:39.024Z,5.26
2016-12-07T11:38:39.684Z,5.33
2016-12-07T11:39:40.307Z,5.36
2016-12-07T11:40:40.951Z,5.36
2016-12-07T11:41:41.568Z,5.28
2016-12-07T11:42:42.225Z,5.41
2016-12-07T11:43:42.860Z,5.46
2016-12-07T11:44:43.492Z,5.46
2016-12-07T11:45:44.131Z,5.53
2016-12-07T11:46:44.820Z,5.51
2016-12-07T11:47:45.464Z,5.57
2016-12-07T11:48:46.097Z,5.59
2016-12-07T11:49:46.725Z,5.56
2016-12-07T11:50:47.346Z,5.68
2016-12-07T11:51:47.975Z,5.79
2016-12-07T11:52:48.599Z,5.69
2016-12-07T11:53:49.239Z,5.83
2016-12-07T11:54:49.849Z,5.83
2016-12-07T11:55:50.461Z,5.8
2016-12-07T11:56:51.143Z,5.84
2016-12-07T11:57:51.842Z,5.86
2016-12-07T11:58:52.505Z,5.97
2016-12-07T11:59:53.135Z,5.93
2016-12-07T12:00:53.773Z,6.01
2016-12-07T12:01:54.394Z,5.99
2016-12-07T12:02:55.072Z,6.04
2016-12-07T12:03:55.703Z,6.16
2016-12-07T12:04:56.335Z,6.16
2016-12-07T12:05:56.969Z,6.33
2016-12-07T12:06:57.596Z,6.3
2016-12-07T12:07:58.222Z,6.33
2016-12-07T12:08:58.873Z,6.31
2016-12-07T12:09:59.515Z,6.42
2016-12-07T12:11:00.152Z,6.54
2016-12-07T12:12:00.855Z,6.48
2016-12-07T12:13:01.471Z,6.52
2016-12-07T12:14:02.098Z,6.6
2016-12-07T12:15:02.722Z,6.64
2016-12-07T12:16:03.343Z,6.72
2016-12-07T12:17:03.967Z,6.64
2016-12-07T12:18:04.701Z,6.6
2016-12-07T12:19:05.349Z,6.69
2016-12-07T12:20:06.003Z,6.62
2016-12-07T12:21:06.658Z,6.67
2016-12-07T12:22:07.297Z,6.77
2016-12-07T12:23:07.939Z,6.77
2016-12-07T12:24:08.581Z,6.77
2016-12-07T12:25:09.234Z,6.81
2016-12-07T12:26:09.875Z,6.77
2016-12-07T12:27:10.527Z,6.79
2016-12-07T12:28:11.154Z,6.74
2016-12-07T12:29:11.837Z,6.85
2016-12-07T12:30:12.472Z,6.77
2016-12-07T12:31:13.104Z,6.78
2016-12-07T12:32:13.757Z,6.78
2016-12-07T12:33:14.418Z,6.81
2016-12-07T12:34:15.045Z,6.82
2016-12-07T12:35:15.685Z,6.85
2016-12-07T12:36:16.301Z,6.84
2016-12-07T12:37:16.954Z,6.85
2016-12-07T12:38:17.630Z,6.81
2016-12-07T12:39:18.270Z,6.84
2016-12-07T12:40:18.898Z,6.89
2016-12-07T12:41:19.544Z,6.92
2016-12-07T12:42:20.199Z,6.85
2016-12-07T12:43:20.925Z,6.88
2016-12-07T12:44:21.596Z,6.96
2016-12-07T12:45:22.286Z,6.95
2016-12-07T12:46:22.915Z,6.96
2016-12-07T12:47:23.574Z,6.95
2016-12-07T12:48:24.223Z,6.92
2016-12-07T12:49:24.863Z,6.96
2016-12-07T12:50:25.514Z,7
2016-12-07T12:51:26.151Z,6.99
2016-12-07T12:52:26.982Z,6.96
2016-12-07T12:53:27.604Z,6.97
2016-12-07T12:54:28.264Z,6.99
2016-12-07T12:55:28.937Z,6.93
2016-12-07T12:56:29.626Z,6.96
2016-12-07T12:57:30.303Z,7
2016-12-07T12:58:30.939Z,6.97
2016-12-07T12:59:31.598Z,6.95
2016-12-07T13:00:32.281Z,6.96
2016-12-07T13:01:32.929Z,6.88
2016-12-07T13:02:33.568Z,6.93
2016-12-07T13:03:34.214Z,6.82
2016-12-07T13:04:34.868Z,6.78
2016-12-07T13:05:35.512Z,6.92
2016-12-07T13:06:36.167Z,6.78
2016-12-07T13:07:36.847Z,6.78
2016-12-07T13:08:37.492Z,6.75
2016-12-07T13:09:38.134Z,6.79
2016-12-07T13:10:38.774Z,6.82
2016-12-07T13:11:39.423Z,6.81
2016-12-07T13:12:40.074Z,6.77
2016-12-07T13:13:40.711Z,6.72
2016-12-07T13:14:41.350Z,6.66
2016-12-07T13:15:42.006Z,6.64
2016-12-07T13:16:42.687Z,6.72
2016-12-07T13:17:43.354Z,6.7
2016-12-07T13:18:44.003Z,6.66
2016-12-07T13:19:44.634Z,6.75
2016-12-07T13:20:45.287Z,6.74
2016-12-07T13:21:45.909Z,6.75
2016-12-07T13:22:46.543Z,6.75
2016-12-07T13:23:47.197Z,6.77
2016-12-07T13:24:47.834Z,6.74
2016-12-07T13:25:48.488Z,6.74
2016-12-07T13:26:49.146Z,6.78
2016-12-07T13:27:49.776Z,6.77
2016-12-07T13:28:50.416Z,6.78
2016-12-07T13:29:51.069Z,6.66
2016-12-07T13:30:51.720Z,6.69